createdAt,value
2023-04-26T00:01:58.938Z,5.80
2023-04-26T00:04:26.025Z,5.80
2023-04-26T00:06:53.035Z,5.80
2023-04-26T00:09:19.899Z,5.80
2023-04-26T00:11:46.806Z,5.80
2023-04-26T00:14:13.846Z,5.80
2023-04-26T00:16:40.867Z,5.70
2023-04-26T00:19:07.848Z,5.80
2023-04-26T00:21:35.134Z,5.80
2023-04-26T00:24:02.074Z,5.80
2023-04-26T00:26:29.915Z,5.70
2023-04-26T00:28:56.800Z,5.80
2023-04-26T00:31:23.864Z,5.80
2023-04-26T00:33:51.853Z,5.70
2023-04-26T00:36:19.564Z,5.70
2023-04-26T00:38:47.154Z,5.70
2023-04-26T00:41:14.721Z,5.70
2023-04-26T00:43:41.762Z,5.70
2023-04-26T00:46:12.623Z,5.70
2023-04-26T00:48:39.646Z,5.70
2023-04-26T00:51:07.003Z,5.70
2023-04-26T00:53:35.482Z,5.70
2023-04-26T00:56:02.501Z,5.60
2023-04-26T00:58:30.085Z,5.60
2023-04-26T01:00:57.190Z,5.60
2023-04-26T01:03:24.923Z,5.60
2023-04-26T01:05:52.695Z,5.50
2023-04-26T01:08:21.283Z,5.50
2023-04-26T01:10:49.317Z,5.60
2023-04-26T01:13:16.998Z,5.60
2023-04-26T01:15:47.407Z,5.60
2023-04-26T01:18:15.266Z,5.60
2023-04-26T01:20:43.133Z,5.50
2023-04-26T01:23:11.713Z,5.50
2023-04-26T01:25:38.951Z,5.50
2023-04-26T01:28:06.295Z,5.40
2023-04-26T01:30:33.312Z,5.50
2023-04-26T01:33:00.425Z,5.50
2023-04-26T01:35:27.671Z,5.50
2023-04-26T01:37:54.590Z,5.50
2023-04-26T01:40:22.286Z,5.40
2023-04-26T01:42:49.448Z,5.40
2023-04-26T01:45:17.529Z,5.50
2023-04-26T01:47:44.589Z,5.50
2023-04-26T01:50:11.697Z,5.40
2023-04-26T01:52:38.619Z,5.40
2023-04-26T01:55:06.077Z,5.40
2023-04-26T01:57:33.019Z,5.40
2023-04-26T02:00:00.050Z,5.40
2023-04-26T02:02:26.965Z,5.40
2023-04-26T02:04:54.051Z,5.30
2023-04-26T02:07:21.152Z,5.30
2023-04-26T02:09:48.153Z,5.30
2023-04-26T02:12:15.196Z,5.30
2023-04-26T02:14:42.370Z,5.20
2023-04-26T02:17:10.586Z,5.20
2023-04-26T02:19:37.484Z,5.20
2023-04-26T02:22:06.331Z,5.20
2023-04-26T02:24:33.617Z,5.20
2023-04-26T02:27:03.847Z,5.10
2023-04-26T02:29:43.534Z,5.10
2023-04-26T02:32:15.348Z,5.10
2023-04-26T02:34:43.301Z,5.10
2023-04-26T02:37:10.239Z,5.10
2023-04-26T02:39:37.134Z,5.10
2023-04-26T02:42:04.173Z,5.10
2023-04-26T02:44:31.565Z,5.00
2023-04-26T02:46:58.594Z,5.00
2023-04-26T02:49:25.693Z,5.00
2023-04-26T02:51:52.621Z,5.00
2023-04-26T02:54:19.605Z,5.00
2023-04-26T02:56:46.661Z,4.90
2023-04-26T02:59:13.921Z,4.90
2023-04-26T03:01:41.029Z,4.90
2023-04-26T03:04:08.422Z,4.90
2023-04-26T03:06:35.959Z,4.90
2023-04-26T03:09:02.886Z,4.90
2023-04-26T03:11:29.723Z,4.80
2023-04-26T03:13:56.647Z,4.80
2023-04-26T03:16:24.280Z,4.80
2023-04-26T03:18:51.353Z,4.80
2023-04-26T03:21:18.539Z,4.80
2023-04-26T03:23:45.962Z,4.70
2023-04-26T03:26:12.985Z,4.80
2023-04-26T03:28:40.035Z,4.80
2023-04-26T03:31:07.497Z,4.70
2023-04-26T03:33:34.403Z,4.70
2023-04-26T03:36:01.684Z,4.80
2023-04-26T03:38:28.532Z,4.80
2023-04-26T03:40:55.523Z,4.80
2023-04-26T03:43:22.398Z,4.80
2023-04-26T03:45:50.362Z,4.80
2023-04-26T03:48:17.492Z,4.80
2023-04-26T03:50:45.476Z,4.70
2023-04-26T03:53:12.720Z,4.70
2023-04-26T03:55:39.727Z,4.70
2023-04-26T03:58:08.082Z,4.70
2023-04-26T04:00:38.043Z,4.70
2023-04-26T04:03:06.313Z,4.70
2023-04-26T04:05:33.504Z,4.60
2023-04-26T04:08:00.759Z,4.60
2023-04-26T04:10:27.931Z,4.60
2023-04-26T04:12:54.784Z,4.60
2023-04-26T04:15:21.910Z,4.60
2023-04-26T04:17:48.862Z,4.60
2023-04-26T04:20:15.754Z,4.60
2023-04-26T04:22:42.637Z,4.60
2023-04-26T04:25:13.862Z,4.70
2023-04-26T04:27:42.793Z,4.70
2023-04-26T04:30:10.250Z,4.70
2023-04-26T04:32:38.087Z,4.70
2023-04-26T04:35:06.050Z,4.80
2023-04-26T04:37:36.000Z,4.80
2023-04-26T04:40:02.960Z,4.80
2023-04-26T04:42:29.886Z,4.80
2023-04-26T04:44:57.596Z,4.80
2023-04-26T04:47:24.655Z,4.80
2023-04-26T04:49:51.689Z,4.80
2023-04-26T04:52:20.194Z,4.80
2023-04-26T04:54:47.240Z,4.80
2023-04-26T04:57:14.143Z,4.80
2023-04-26T04:59:41.113Z,4.80
2023-04-26T05:02:08.214Z,4.90
2023-04-26T05:04:35.502Z,4.90
2023-04-26T05:07:02.495Z,4.90
2023-04-26T05:09:29.345Z,4.90
2023-04-26T05:11:56.253Z,4.90
2023-04-26T05:14:23.196Z,4.90
2023-04-26T05:16:50.286Z,5.10
2023-04-26T05:19:17.197Z,5.10
2023-04-26T05:21:44.079Z,5.10
2023-04-26T05:24:11.086Z,5.10
2023-04-26T05:26:38.126Z,5.10
2023-04-26T05:29:05.329Z,5.20
2023-04-26T05:31:32.211Z,5.20
2023-04-26T05:33:59.090Z,5.20
2023-04-26T05:36:28.442Z,5.20
2023-04-26T05:38:56.713Z,5.30
2023-04-26T05:41:23.634Z,5.30
2023-04-26T05:43:50.760Z,5.40
2023-04-26T05:46:18.051Z,5.50
2023-04-26T05:48:45.244Z,5.50
2023-04-26T05:51:12.193Z,5.60
2023-04-26T05:53:39.058Z,5.60
2023-04-26T05:56:07.152Z,5.70
2023-04-26T05:58:34.035Z,5.60
2023-04-26T06:01:01.108Z,5.70
2023-04-26T06:03:28.037Z,5.80
2023-04-26T06:05:55.163Z,5.90
2023-04-26T06:08:22.108Z,6.00
2023-04-26T06:10:48.946Z,6.00
2023-04-26T06:13:16.033Z,6.10
2023-04-26T06:15:42.896Z,6.10
2023-04-26T06:18:09.810Z,6.20
2023-04-26T06:20:36.759Z,6.30
2023-04-26T06:23:03.692Z,6.40
2023-04-26T06:25:30.596Z,6.40
2023-04-26T06:27:58.790Z,6.50
2023-04-26T06:30:25.652Z,6.50
2023-04-26T06:32:52.756Z,6.70
2023-04-26T06:35:19.580Z,7.00
2023-04-26T06:37:46.979Z,6.90
2023-04-26T06:40:15.924Z,6.90
2023-04-26T06:42:43.232Z,7.10
2023-04-26T06:45:11.440Z,7.10
2023-04-26T06:47:38.423Z,7.20
2023-04-26T06:50:05.940Z,7.30
2023-04-26T06:52:32.959Z,7.80
2023-04-26T06:55:03.934Z,8.10
2023-04-26T06:57:30.860Z,8.50
2023-04-26T06:59:58.266Z,8.70
2023-04-26T07:02:25.587Z,8.40
2023-04-26T07:04:53.016Z,8.50
2023-04-26T07:07:20.218Z,8.40
2023-04-26T07:09:47.186Z,8.20
2023-04-26T07:12:14.442Z,8.30
2023-04-26T07:14:43.241Z,8.30
2023-04-26T07:17:10.786Z,8.30
2023-04-26T07:19:37.635Z,8.40
2023-04-26T07:22:04.901Z,8.50
2023-04-26T07:24:31.918Z,8.60
2023-04-26T07:26:59.021Z,8.80
2023-04-26T07:29:25.816Z,8.70
2023-04-26T07:31:52.857Z,8.80
2023-04-26T07:34:19.823Z,8.80
2023-04-26T07:36:46.992Z,8.80
2023-04-26T07:39:15.480Z,9.00
2023-04-26T07:41:43.993Z,9.10
2023-04-26T07:44:11.539Z,9.30
2023-04-26T07:46:38.445Z,9.40
2023-04-26T07:49:05.257Z,9.80
2023-04-26T07:51:32.155Z,10.10
2023-04-26T07:53:59.285Z,10.10
2023-04-26T07:56:26.119Z,10.00
2023-04-26T07:58:53.257Z,10.10
2023-04-26T08:01:20.111Z,9.90
2023-04-26T08:03:49.107Z,9.80
2023-04-26T08:06:16.851Z,9.90
2023-04-26T08:08:50.703Z,10.10
2023-04-26T08:11:18.294Z,10.50
2023-04-26T08:13:45.252Z,11.00
2023-04-26T08:16:12.130Z,11.60
2023-04-26T08:18:39.109Z,12.40
2023-04-26T08:21:06.534Z,13.40
2023-04-26T08:23:36.869Z,13.70
2023-04-26T08:26:04.273Z,14.10
2023-04-26T08:28:31.245Z,14.10
2023-04-26T08:30:58.335Z,13.50
2023-04-26T08:33:25.999Z,12.80
2023-04-26T08:35:52.856Z,12.10
2023-04-26T08:38:19.880Z,11.70
2023-04-26T08:40:47.772Z,11.90
2023-04-26T08:43:17.359Z,12.10
2023-04-26T08:45:49.441Z,12.40
2023-04-26T08:48:18.313Z,12.40
2023-04-26T08:50:46.855Z,12.40
2023-04-26T08:53:20.367Z,12.60
2023-04-26T08:55:51.079Z,12.50
2023-04-26T08:58:21.579Z,12.20
2023-04-26T09:00:48.713Z,11.80
2023-04-26T09:03:16.090Z,11.60
2023-04-26T09:05:45.955Z,11.20
2023-04-26T09:08:19.813Z,11.00
2023-04-26T09:10:46.719Z,11.30
2023-04-26T09:13:14.540Z,11.60
2023-04-26T09:15:41.711Z,12.10
2023-04-26T09:18:18.581Z,12.40
2023-04-26T09:20:46.504Z,12.40
2023-04-26T09:23:13.549Z,13.10
2023-04-26T09:25:40.359Z,13.10
2023-04-26T09:28:20.718Z,13.40
2023-04-26T09:30:47.700Z,13.30
2023-04-26T09:33:15.051Z,13.50
2023-04-26T09:35:43.368Z,13.20
2023-04-26T09:38:19.401Z,12.60
2023-04-26T09:40:50.598Z,12.00
2023-04-26T09:43:19.505Z,11.70
2023-04-26T09:45:53.493Z,11.70
2023-04-26T09:48:26.323Z,12.60
2023-04-26T09:50:55.279Z,14.20
2023-04-26T09:53:39.856Z,15.00
2023-04-26T09:56:08.626Z,15.30
2023-04-26T09:58:39.315Z,14.80
2023-04-26T10:01:08.248Z,13.70
2023-04-26T10:03:36.247Z,13.50
2023-04-26T10:06:04.165Z,13.60
2023-04-26T10:08:34.576Z,13.20
2023-04-26T10:11:04.188Z,12.60
2023-04-26T10:13:34.527Z,12.60
2023-04-26T10:16:02.369Z,12.90
2023-04-26T10:18:31.492Z,13.20
2023-04-26T10:21:02.201Z,13.90
2023-04-26T10:23:29.803Z,15.00
2023-04-26T10:25:56.618Z,15.60
2023-04-26T10:28:45.527Z,16.60
2023-04-26T10:31:12.514Z,17.90
2023-04-26T10:33:39.369Z,18.80
2023-04-26T10:36:08.864Z,17.20
2023-04-26T10:38:38.117Z,16.30
2023-04-26T10:41:37.126Z,16.40
2023-04-26T10:44:41.663Z,15.90
2023-04-26T10:47:28.576Z,14.90
2023-04-26T10:50:09.237Z,14.10
2023-04-26T10:53:03.657Z,15.00
2023-04-26T10:55:41.876Z,16.10
2023-04-26T10:58:28.276Z,17.30
2023-04-26T11:01:17.491Z,18.50
2023-04-26T11:04:05.173Z,19.40
2023-04-26T11:06:51.497Z,19.70
2023-04-26T11:09:37.794Z,20.30
2023-04-26T11:12:06.067Z,20.90
2023-04-26T11:14:35.863Z,20.70
2023-04-26T11:17:12.974Z,19.80
2023-04-26T11:19:42.081Z,18.60
2023-04-26T11:22:09.285Z,17.60
2023-04-26T11:24:39.186Z,16.20
2023-04-26T11:27:10.327Z,15.10
2023-04-26T11:29:37.697Z,14.60
2023-04-26T11:32:05.444Z,14.40
2023-04-26T11:34:32.610Z,14.20
2023-04-26T11:37:00.371Z,14.60
2023-04-26T11:39:27.859Z,14.80
2023-04-26T11:42:08.196Z,15.10
2023-04-26T11:44:35.671Z,15.40
2023-04-26T11:47:05.572Z,15.10
2023-04-26T11:49:34.138Z,15.40
2023-04-26T11:52:01.688Z,15.90
2023-04-26T11:54:33.874Z,17.10
2023-04-26T11:57:01.079Z,18.00
2023-04-26T11:59:29.370Z,19.00
2023-04-26T12:01:57.422Z,19.20
2023-04-26T12:04:31.322Z,18.80
2023-04-26T12:06:58.640Z,18.30
2023-04-26T12:09:28.353Z,17.60
2023-04-26T12:12:02.597Z,17.00
2023-04-26T12:14:33.460Z,17.20
2023-04-26T12:17:04.467Z,18.20
2023-04-26T12:19:36.644Z,19.10
2023-04-26T12:22:04.394Z,20.00
2023-04-26T12:24:36.645Z,20.70
2023-04-26T12:27:06.627Z,20.70
2023-04-26T12:29:34.048Z,21.20
2023-04-26T12:32:01.716Z,20.00
2023-04-26T12:34:28.864Z,19.20
2023-04-26T12:36:55.894Z,18.60
2023-04-26T12:39:22.906Z,17.70
2023-04-26T12:41:49.762Z,16.90
2023-04-26T12:44:18.973Z,16.00
2023-04-26T12:46:47.416Z,15.50
2023-04-26T12:49:14.196Z,15.10
2023-04-26T12:51:41.089Z,14.90
2023-04-26T12:54:07.975Z,14.80
2023-04-26T12:56:35.732Z,14.80
2023-04-26T12:59:02.504Z,15.60
2023-04-26T13:01:29.362Z,17.20
2023-04-26T13:03:57.099Z,18.70
2023-04-26T13:06:24.233Z,19.10
2023-04-26T13:08:51.186Z,19.10
2023-04-26T13:11:18.175Z,19.60
2023-04-26T13:13:46.359Z,19.70
2023-04-26T13:16:13.540Z,18.90
2023-04-26T13:18:41.459Z,18.40
2023-04-26T13:21:08.320Z,17.20
2023-04-26T13:23:35.171Z,17.20
2023-04-26T13:26:02.333Z,17.60
2023-04-26T13:28:29.146Z,18.80
2023-04-26T13:30:56.216Z,19.00
2023-04-26T13:33:23.323Z,18.80
2023-04-26T13:35:50.255Z,18.10
2023-04-26T13:38:17.604Z,18.20
2023-04-26T13:40:45.185Z,18.10
2023-04-26T13:43:12.140Z,18.00
2023-04-26T13:45:38.989Z,17.60
2023-04-26T13:48:06.206Z,17.90
2023-04-26T13:50:33.169Z,17.80
2023-04-26T13:53:00.236Z,17.50
2023-04-26T13:55:27.061Z,17.30
2023-04-26T13:57:53.876Z,16.90
2023-04-26T14:00:21.159Z,16.70
2023-04-26T14:02:48.590Z,17.00
2023-04-26T14:05:16.620Z,17.10
2023-04-26T14:07:43.625Z,17.50
2023-04-26T14:10:10.736Z,17.60
2023-04-26T14:12:37.567Z,17.50
2023-04-26T14:15:06.129Z,17.40
2023-04-26T14:17:33.662Z,17.20
2023-04-26T14:20:00.778Z,16.90
2023-04-26T14:22:27.987Z,16.90
2023-04-26T14:24:54.897Z,16.50
2023-04-26T14:27:21.828Z,16.30
2023-04-26T14:29:48.654Z,16.10
2023-04-26T14:32:15.683Z,16.00
2023-04-26T14:34:43.028Z,16.10
2023-04-26T14:37:10.517Z,16.60
2023-04-26T14:39:37.588Z,16.80
2023-04-26T14:42:04.843Z,17.10
2023-04-26T14:44:31.693Z,16.70
2023-04-26T14:46:58.507Z,16.30
2023-04-26T14:49:25.737Z,16.10
2023-04-26T14:51:53.305Z,16.00
2023-04-26T14:54:21.212Z,16.00
2023-04-26T14:56:48.717Z,15.70
2023-04-26T14:59:15.715Z,15.40
2023-04-26T15:01:42.571Z,15.10
2023-04-26T15:04:09.621Z,14.60
2023-04-26T15:06:36.606Z,14.30
2023-04-26T15:09:04.474Z,14.50
2023-04-26T15:11:31.273Z,14.40
2023-04-26T15:13:58.061Z,14.20
2023-04-26T15:16:24.979Z,14.10
2023-04-26T15:18:51.909Z,14.00
2023-04-26T15:21:22.075Z,14.20
2023-04-26T15:23:48.928Z,14.00
2023-04-26T15:26:15.786Z,13.80
2023-04-26T15:28:42.554Z,14.10
2023-04-26T15:31:10.661Z,14.30
2023-04-26T15:33:37.823Z,14.40
2023-04-26T15:36:05.453Z,14.60
2023-04-26T15:38:34.315Z,14.80
2023-04-26T15:41:01.243Z,14.80
2023-04-26T15:43:28.029Z,14.70
2023-04-26T15:45:55.175Z,14.50
2023-04-26T15:48:22.067Z,14.40
2023-04-26T15:50:48.899Z,14.30
2023-04-26T15:53:16.313Z,14.10
2023-04-26T15:55:43.245Z,13.90
2023-04-26T15:58:10.106Z,13.80
2023-04-26T16:00:37.197Z,13.70
2023-04-26T16:03:04.381Z,13.70
2023-04-26T16:05:31.810Z,13.70
2023-04-26T16:07:59.768Z,13.40
2023-04-26T16:10:27.069Z,13.20
2023-04-26T16:12:53.874Z,13.10
2023-04-26T16:15:20.758Z,13.10
2023-04-26T16:17:47.651Z,13.00
2023-04-26T16:20:15.229Z,12.90
2023-04-26T16:22:45.044Z,12.70
2023-04-26T16:25:12.188Z,12.60
2023-04-26T16:27:39.001Z,12.60
2023-04-26T16:30:06.434Z,12.40
2023-04-26T16:32:34.157Z,12.40
2023-04-26T16:35:01.134Z,12.30
2023-04-26T16:37:27.967Z,12.20
2023-04-26T16:39:55.929Z,12.10
2023-04-26T16:42:22.999Z,12.00
2023-04-26T16:44:49.905Z,12.00
2023-04-26T16:47:16.900Z,11.90
2023-04-26T16:49:43.732Z,11.80
2023-04-26T16:52:10.773Z,11.80
2023-04-26T16:54:37.695Z,11.70
2023-04-26T16:57:04.769Z,11.50
2023-04-26T16:59:31.630Z,11.50
2023-04-26T17:01:59.070Z,11.50
2023-04-26T17:04:26.484Z,11.40
2023-04-26T17:06:54.722Z,11.40
2023-04-26T17:09:21.673Z,11.30
2023-04-26T17:11:49.911Z,11.20
2023-04-26T17:14:16.897Z,11.30
2023-04-26T17:16:44.021Z,11.10
2023-04-26T17:19:11.174Z,11.10
2023-04-26T17:21:37.983Z,11.00
2023-04-26T17:24:05.055Z,11.00
2023-04-26T17:26:31.879Z,10.90
2023-04-26T17:28:58.827Z,10.90
2023-04-26T17:31:25.855Z,10.80
2023-04-26T17:33:52.837Z,10.70
2023-04-26T17:36:19.616Z,10.60
2023-04-26T17:38:46.555Z,10.50
2023-04-26T17:41:13.662Z,10.50
2023-04-26T17:43:40.652Z,10.40
2023-04-26T17:46:07.570Z,10.40
2023-04-26T17:48:34.393Z,10.30
2023-04-26T17:51:01.414Z,10.30
2023-04-26T17:53:28.290Z,10.30
2023-04-26T17:55:55.349Z,10.20
2023-04-26T17:58:22.094Z,10.10
2023-04-26T18:00:50.154Z,10.00
2023-04-26T18:03:17.375Z,9.90
2023-04-26T18:05:44.381Z,9.80
2023-04-26T18:08:11.405Z,9.70
2023-04-26T18:10:38.338Z,9.60
2023-04-26T18:13:05.614Z,9.60
2023-04-26T18:15:32.586Z,9.50
2023-04-26T18:17:59.472Z,9.40
2023-04-26T18:20:27.124Z,9.30
2023-04-26T18:22:54.019Z,9.30
2023-04-26T18:25:20.988Z,9.20
2023-04-26T18:27:47.829Z,9.20
2023-04-26T18:30:14.824Z,9.10
2023-04-26T18:32:41.637Z,9.00
2023-04-26T18:35:09.652Z,9.00
2023-04-26T18:37:36.788Z,9.00
2023-04-26T18:40:05.339Z,8.90
2023-04-26T18:42:32.158Z,8.90
2023-04-26T18:45:01.006Z,8.80
2023-04-26T18:47:27.864Z,8.70
2023-04-26T18:49:54.758Z,8.70
2023-04-26T18:52:21.757Z,8.60
2023-04-26T18:54:48.574Z,8.60
2023-04-26T18:57:15.699Z,8.50
2023-04-26T18:59:42.495Z,8.50
2023-04-26T19:02:09.591Z,8.50
2023-04-26T19:04:36.889Z,8.50
2023-04-26T19:07:03.982Z,8.40
2023-04-26T19:09:42.787Z,8.40
2023-04-26T19:12:17.619Z,8.40
2023-04-26T19:14:44.402Z,8.30
2023-04-26T19:17:11.413Z,8.30
2023-04-26T19:19:38.294Z,8.20
2023-04-26T19:22:05.230Z,8.10
2023-04-26T19:24:32.049Z,8.10
2023-04-26T19:26:58.844Z,8.10
2023-04-26T19:29:25.828Z,8.00
2023-04-26T19:31:52.797Z,8.00
2023-04-26T19:34:19.753Z,7.90
2023-04-26T19:36:46.561Z,7.90
2023-04-26T19:39:13.529Z,7.80
2023-04-26T19:41:40.483Z,7.80
2023-04-26T19:44:07.275Z,7.70
2023-04-26T19:46:34.145Z,7.70
2023-04-26T19:49:01.008Z,7.70
2023-04-26T19:51:27.914Z,7.70
2023-04-26T19:53:54.750Z,7.60
2023-04-26T19:56:23.231Z,7.60
2023-04-26T19:58:50.058Z,7.60
2023-04-26T20:01:17.044Z,7.50
2023-04-26T20:03:43.972Z,7.60
2023-04-26T20:06:13.880Z,7.60
2023-04-26T20:08:41.468Z,7.70
2023-04-26T20:11:14.629Z,7.60
2023-04-26T20:13:42.762Z,7.60
2023-04-26T20:16:10.582Z,7.70
2023-04-26T20:18:37.724Z,7.70
2023-04-26T20:21:05.040Z,7.70
2023-04-26T20:23:31.954Z,7.70
2023-04-26T20:25:58.850Z,7.80
2023-04-26T20:28:26.171Z,7.70
2023-04-26T20:30:53.223Z,7.70
2023-04-26T20:33:20.289Z,7.70
2023-04-26T20:35:47.334Z,7.70
2023-04-26T20:38:14.482Z,7.70
2023-04-26T20:40:41.284Z,7.70
2023-04-26T20:43:08.076Z,7.70
2023-04-26T20:45:35.077Z,7.70
2023-04-26T20:48:01.936Z,7.70
2023-04-26T20:50:28.816Z,7.90
2023-04-26T20:52:55.644Z,7.90
2023-04-26T20:55:22.718Z,7.80
2023-04-26T20:57:49.537Z,7.80
2023-04-26T21:00:16.558Z,7.70
2023-04-26T21:02:43.462Z,7.70
2023-04-26T21:05:10.482Z,7.70
2023-04-26T21:07:37.306Z,7.70
2023-04-26T21:10:04.398Z,7.80
2023-04-26T21:12:31.190Z,7.80
2023-04-26T21:14:57.984Z,7.80
2023-04-26T21:17:24.787Z,7.80
2023-04-26T21:19:51.768Z,7.80
2023-04-26T21:22:18.535Z,7.80
2023-04-26T21:24:45.398Z,7.80
2023-04-26T21:27:12.209Z,7.90
2023-04-26T21:29:39.110Z,7.90
2023-04-26T21:32:06.294Z,7.80
2023-04-26T21:34:33.116Z,7.80
2023-04-26T21:36:59.888Z,7.80
2023-04-26T21:39:26.650Z,7.80
2023-04-26T21:41:53.479Z,7.80
2023-04-26T21:44:20.247Z,7.80
2023-04-26T21:46:47.024Z,7.80
2023-04-26T21:49:13.858Z,7.70
2023-04-26T21:51:40.710Z,7.80
2023-04-26T21:54:07.505Z,7.70
2023-04-26T21:56:34.266Z,7.70
2023-04-26T21:59:02.542Z,7.80
2023-04-26T22:01:29.468Z,7.70
2023-04-26T22:03:56.469Z,7.70
2023-04-26T22:06:23.330Z,7.70
2023-04-26T22:08:50.071Z,7.70
2023-04-26T22:11:16.836Z,7.70
2023-04-26T22:13:43.701Z,7.70
2023-04-26T22:16:10.791Z,7.70
2023-04-26T22:18:37.690Z,7.70
2023-04-26T22:21:04.510Z,7.70
2023-04-26T22:23:31.490Z,7.70
2023-04-26T22:26:00.498Z,7.70
2023-04-26T22:28:27.611Z,7.60
2023-04-26T22:30:54.384Z,7.60
2023-04-26T22:33:21.527Z,7.70
2023-04-26T22:35:48.341Z,7.70
2023-04-26T22:38:15.133Z,7.70
2023-04-26T22:40:42.413Z,7.60
2023-04-26T22:43:09.203Z,7.60
2023-04-26T22:45:36.579Z,7.60
2023-04-26T22:48:03.469Z,7.60
2023-04-26T22:50:30.277Z,7.60
2023-04-26T22:52:57.040Z,7.60
2023-04-26T22:55:23.955Z,7.60
2023-04-26T22:57:50.822Z,7.60
2023-04-26T23:00:17.935Z,7.60
2023-04-26T23:02:44.828Z,7.60
2023-04-26T23:05:12.567Z,7.60
2023-04-26T23:07:40.114Z,7.60
2023-04-26T23:10:07.769Z,7.60
2023-04-26T23:12:36.266Z,7.60
2023-04-26T23:15:05.187Z,7.50
2023-04-26T23:17:34.091Z,7.50
2023-04-26T23:20:01.170Z,7.60
2023-04-26T23:22:28.281Z,7.60
2023-04-26T23:24:55.479Z,7.60
2023-04-26T23:27:24.347Z,7.50
2023-04-26T23:29:51.676Z,7.50
2023-04-26T23:32:18.462Z,7.50
2023-04-26T23:34:45.441Z,7.50
2023-04-26T23:37:12.315Z,7.40
2023-04-26T23:39:39.079Z,7.30
2023-04-26T23:42:06.666Z,7.30
2023-04-26T23:44:33.658Z,7.20
2023-04-26T23:47:00.532Z,7.10
2023-04-26T23:49:27.355Z,7.10
2023-04-26T23:51:54.319Z,7.10
2023-04-26T23:54:21.072Z,7.00
2023-04-26T23:56:47.884Z,6.90
2023-04-26T23:59:15.670Z,6.90
